• Join FlightAware (Why Join?)
  • Login
  • US Flag 
10:55AM EDT


 

Airport Tracker/Info


-or-


 

Live Flight TrackerFlight Track Log ✈ VIR19 ✈ 07-Mar-2014 ✈ EGLL / LHR - KSFO

Flight Track Log - Related Links

Times and Time Zones

All times are in EST time to prevent confusion due to time zone crossing. See the VIR19 flight status page for this flight to view local times or setup timezone preferences in your user account.

Time Position Orientation Groundspeed Altitude Reporting Facility
EST Latitude Longitude Course Direction KTS MPH feet Rate Location/Type
06:31AM 51.4775 -0.4919 270° West 167 192 600  Level FlightAware ADS-B (EGLF / FAB)
06:31AM 51.4774 -0.5207 269° West 171 197 1,200 1,920 Climbing FlightAware ADS-B (EGLF / FAB)
06:31AM 51.4773 -0.5282 269° West 170 196 1,400 2,100 Climbing FlightAware ADS-B
06:31AM 51.4771 -0.5409 270° West 173 199 1,700 1,620 Climbing FlightAware ADS-B
06:31AM 51.4771 -0.5396 270° West 174 200 1,700 720 Level FlightAware ADS-B
06:31AM 51.4779 -0.5514 281° West 181 208 1,800 840 Climbing FlightAware ADS-B
06:31AM 51.4798 -0.5605 293° West 190 219 1,900 1,080 Climbing FlightAware ADS-B
06:32AM 51.4811 -0.5645 296° West 194 223 2,000 840 Climbing FlightAware ADS-B
06:32AM 51.4824 -0.5683 296° West 195 224 2,000 1,200 Level FlightAware ADS-B
06:32AM 51.4833 -0.5709 298° West 199 229 2,100 1,380 Climbing FlightAware ADS-B
06:32AM 51.4882 -0.5855 299° West 207 238 2,300 1,380 Climbing FlightAware ADS-B (EGLF / FAB)
06:32AM 51.4912 -0.5936 299° West 210 242 2,500 2,460 Climbing FlightAware ADS-B
06:32AM 51.4966 -0.6099 299° West 208 239 3,000 2,400 Climbing FlightAware ADS-B
06:32AM 51.4983 -0.6139 299° West 207 238 3,100 1,560 Climbing FlightAware ADS-B
06:32AM 51.5031 -0.6289 298° West 208 239 3,400 1,740 Climbing FlightAware ADS-B
06:32AM 51.5059 -0.6371 298° West 209 241 3,600 1,980 Climbing FlightAware ADS-B
06:33AM 51.5119 -0.6549 298° West 210 242 4,000 1,620 Climbing FlightAware ADS-B
06:33AM 51.5143 -0.6616 302° West 212 244 4,100 1,320 Climbing FlightAware ADS-B
06:33AM 51.5165 -0.6670 305° West 214 246 4,200 960 Climbing FlightAware ADS-B
06:33AM 51.5170 -0.6670 309° West 215 247 4,200 1,200 Level FlightAware ADS-B (EGWE)
06:33AM 51.5196 -0.6717 315° West 216 249 4,300 2,400 Climbing FlightAware ADS-B
06:33AM 51.5216 -0.6748 320° Northwest 217 250 4,400 1,500 Climbing FlightAware ADS-B
06:33AM 51.5226 -0.6757 322° Northwest 217 250 4,400 1,500 Level FlightAware ADS-B
06:33AM 51.5254 -0.6783 331° Northwest 219 252 4,500 1,980 Climbing FlightAware ADS-B
06:33AM 51.5272 -0.6805 337° Northwest 222 255 4,600 1,200 Climbing FlightAware ADS-B
06:33AM 51.5288 -0.6812 342° North 225 259 4,600  Level FlightAware ADS-B
06:33AM 51.5312 -0.6822 342° North 225 259 4,600 1,980 Level FlightAware ADS-B
06:33AM 51.5365 -0.6842 349° North 228 262 4,800 1,980 Climbing FlightAware ADS-B
06:33AM 51.5410 -0.6853 354° North 232 267 4,900 720 Climbing FlightAware ADS-B
06:33AM 51.5446 -0.6856 358° North 236 272 4,900 660 Level FlightAware ADS-B
06:33AM 51.5504 -0.6858 North 241 277 5,000 1,320 Climbing FlightAware ADS-B
06:33AM 51.5423 -0.6855 North 246 283 5,100 960 Climbing FlightAware ADS-B (EGLF / FAB)
06:34AM 51.5647 -0.6856 360° North 254 292 5,200 1,020 Climbing FlightAware ADS-B (EGLF / FAB)
06:34AM 51.5777 -0.6860 358° North 258 297 5,500 1,020 Climbing FlightAware ADS-B (EGWE)
06:34AM 51.6050 -0.6882 357° North 270 311 5,800 480 Climbing FlightAware ADS-B (EGLC / LCY)
06:34AM 51.6239 -0.6900 357° North 276 318 5,800 360 Level FlightAware ADS-B (EGLC / LCY)
06:35AM 51.6452 -0.6924 356° North 294 338 6,000 1,260 Climbing FlightAware ADS-B (EGLC / LCY)
06:35AM 51.6673 -0.6950 356° North 305 351 6,500 1,200 Climbing FlightAware ADS-B (EPWR / WRO)
06:35AM 51.6944 -0.6982 356° North 324 373 6,700 780 Climbing FlightAware ADS-B
06:36AM 51.7205 -0.7009 357° North 343 395 7,000 480 Climbing FlightAware ADS-B (EGLC / LCY)
06:36AM 51.7467 -0.7036 356° North 352 405 7,000  Level FlightAware ADS-B (EGLC / LCY)
06:36AM 51.7795 -0.7072 356° North 354 407 7,000  Level FlightAware ADS-B (EGLC / LCY)
06:36AM 51.8053 -0.7104 356° North 355 409 7,000  Level FlightAware ADS-B
06:37AM 51.8218 -0.7122 356° North 356 410 7,000 480 Level FlightAware ADS-B (EGTR / ETR)
06:37AM 51.8464 -0.7146 357° North 357 411 7,200 900 Climbing FlightAware ADS-B (EGLC / LCY)
06:37AM 51.8760 -0.7176 357° North 359 413 7,500 1,800 Climbing FlightAware ADS-B (EGLC / LCY)
06:37AM 51.9093 -0.7209 356° North 361 415 8,400 1,980 Climbing FlightAware ADS-B
06:38AM 51.9450 -0.7248 356° North 364 419 8,900 1,920 Climbing FlightAware ADS-B
06:38AM 51.9796 -0.7288 356° North 366 421 9,700 2,700 Climbing FlightAware ADS-B
06:38AM 52.0007 -0.7314 352° North 367 422 10,400 2,040 Climbing FlightAware ADS-B
06:38AM 52.0177 -0.7354 356° North 361 415 10,500 1,500 Climbing FlightAware ADS-B (EGLF / FAB)
06:39AM 52.0621 -0.7543 345° North 367 422 11,400 1,980 Climbing FlightAware ADS-B
06:40AM 52.1353 -0.7908 344° North 381 438 12,900 1,860 Climbing FlightAware ADS-B
06:40AM 52.1651 -0.8054 345° North 388 447 13,700 1,200 Climbing FlightAware ADS-B (EGTR / ETR)
06:41AM 52.2255 -0.8324 346° North 393 452 14,000 1,140 Climbing FlightAware ADS-B (EGLF / FAB)
06:41AM 52.2851 -0.8536 354° North 411 473 14,800 1,620 Climbing FlightAware ADS-B (EGLF / FAB)
06:41AM 52.3003 -0.8556 356° North 415 478 15,100 1,500 Climbing FlightAware ADS-B (EGTR / ETR)
06:42AM 52.3346 -0.8594 357° North 425 489 15,500 1,200 Climbing FlightAware ADS-B (EGTR / ETR)
06:42AM 52.4059 -0.8677 356° North 433 498 16,200 1,260 Climbing FlightAware ADS-B
06:42AM 52.4124 -0.8692 352° North 424 488 16,300 1,740 Climbing FlightAware ADS-B (EGNR / CEG)
06:43AM 52.4789 -0.8941 346° North 433 498 17,300 1,860 Climbing FlightAware ADS-B
06:43AM 52.5143 -0.9085 346° North 441 507 18,300 1,860 Climbing FlightAware ADS-B (EGLF / FAB)
06:44AM 52.5698 -0.9305 346° North 428 493 18,800 1,920 Climbing FlightAware ADS-B (EGNR / CEG)
06:44AM 52.6381 -0.9570 346° North 450 518 19,900 2,160 Climbing FlightAware ADS-B
06:44AM 52.6696 -0.9747 335° Northwest 437 503 20,600 2,100 Climbing FlightAware ADS-B (EGCD)
06:45AM 52.6908 -0.9926 333° Northwest 434 499 20,900 1,560 Climbing FlightAware ADS-B
06:45AM 52.7479 -1.0439 332° Northwest 439 505 21,800 1,740 Climbing FlightAware ADS-B (EGLF / FAB)
06:46AM 52.8095 -1.0986 332° Northwest 444 511 22,900 1,980 Climbing FlightAware ADS-B
06:46AM 52.8376 -1.1244 331° Northwest 440 506 23,400 1,920 Climbing FlightAware ADS-B
06:46AM 52.8555 -1.1406 331° Northwest 441 507 23,700 1,560 Climbing FlightAware ADS-B
06:47AM 52.9061 -1.1850 332° Northwest 455 524 24,400 1,440 Climbing FlightAware ADS-B
06:47AM 52.9588 -1.2323 331° Northwest 463 533 25,100 1,500 Climbing FlightAware ADS-B (EGNT / NCL)
06:47AM 52.9823 -1.2546 332° Northwest 467 537 25,400 1,260 Climbing FlightAware ADS-B
06:47AM 52.9984 -1.2685 332° Northwest 472 543 25,500 1,200 Climbing FlightAware ADS-B
06:48AM 53.0195 -1.2876 332° Northwest 474 545 25,800 1,620 Climbing FlightAware ADS-B
06:48AM 53.0419 -1.3088 332° Northwest 477 549 26,100 1,620 Climbing FlightAware ADS-B
06:48AM 53.0591 -1.3245 332° Northwest 481 554 26,400 1,500 Climbing FlightAware ADS-B (EGXP / SQZ)
06:48AM 53.1262 -1.3845 331° Northwest 480 552 27,200 1,500 Climbing FlightAware ADS-B (EGOW)
06:49AM 53.1644 -1.4182 331° Northwest 477 549 27,700 1,560 Climbing FlightAware ADS-B
06:49AM 53.2305 -1.4767 333° Northwest 496 571 28,600 1,440 Climbing FlightAware ADS-B (LESA / SLM)
06:50AM 53.2895 -1.5287 332° Northwest 501 577 29,200 1,260 Climbing FlightAware ADS-B (EGNA)
06:50AM 53.2977 -1.5359 333° Northwest 500 575 29,300 1,980 Climbing FlightAware ADS-B
06:50AM 53.3148 -1.5502 333° Northwest 499 574 29,600 1,440 Climbing FlightAware ADS-B
06:50AM 53.3493 -1.5808 333° Northwest 500 575 29,900 1,200 Climbing FlightAware ADS-B
06:50AM 53.3561 -1.5860 332° Northwest 494 568 30,000 600 Climbing FlightAware ADS-B (EGOW)
06:50AM 53.3687 -1.5969 332° Northwest 493 567 30,000  Level FlightAware ADS-B (EGNR / CEG)
06:51AM 53.4366 -1.6578 332° Northwest 498 573 30,000  Level FlightAware ADS-B (LESA / SLM)
06:51AM 53.4493 -1.6686 333° Northwest 496 571 30,000  Level FlightAware ADS-B
06:52AM 53.5092 -1.7220 332° Northwest 492 566 30,000  Level FlightAware ADS-B (EGLF / FAB)
06:52AM 53.5755 -1.7809 332° Northwest 490 564 30,000  Level FlightAware ADS-B (EGOW)
06:53AM 53.6372 -1.8352 332° Northwest 493 567 30,000  Level FlightAware ADS-B (EGOW)
06:53AM 53.6557 -1.8514 332° Northwest 493 567 30,000  Level FlightAware ADS-B (EGOW)
06:53AM 53.7089 -1.8979 333° Northwest 498 573 30,000  Level FlightAware ADS-B (EGXW / WTN)
06:53AM 53.7234 -1.9103 332° Northwest 490 564 30,000  Level FlightAware ADS-B (EGPK / PIK)
06:54AM 53.7451 -1.9301 333° Northwest 495 570 30,000  Level FlightAware ADS-B (EGCW)
06:54AM 53.7772 -1.9570 333° Northwest 498 573 30,000  Level FlightAware ADS-B
06:54AM 53.7985 -1.9764 333° Northwest 498 573 30,000  Level FlightAware ADS-B
06:55AM 53.8650 -2.0346 333° Northwest 492 566 30,000  Level FlightAware ADS-B (EGXU / HRT)
06:55AM 53.8718 -2.0397 333° Northwest 492 566 30,000  Level FlightAware ADS-B (LESA / SLM)
06:55AM 53.9372 -2.0912 336° Northwest 496 571 30,000  Level FlightAware ADS-B (EGAA / BFS)
06:55AM 53.9520 -2.1027 336° Northwest 495 570 30,000  Level FlightAware ADS-B (EGXW / WTN)
06:55AM 53.9710 -2.1182 332° Northwest 486 559 30,000  Level FlightAware ADS-B (EGCB)
06:56AM 54.0270 -2.1680 332° Northwest 493 567 30,000  Level FlightAware ADS-B (EGAA / BFS)
06:56AM 54.0594 -2.1968 332° Northwest 493 567 30,000  Level FlightAware ADS-B (EGCD)
06:56AM 54.0885 -2.2217 332° Northwest 493 567 30,000  Level FlightAware ADS-B (EGCB)
06:57AM 54.1606 -2.2849 333° Northwest 494 568 30,000  Level FlightAware ADS-B (EGNT / NCL)
06:57AM 54.1800 -2.3006 333° Northwest 488 562 30,000  Level FlightAware ADS-B
06:57AM 54.2240 -2.3389 333° Northwest 487 560 30,000  Level FlightAware ADS-B (EGPK / PIK)
06:58AM 54.2321 -2.3459 333° Northwest 495 570 30,000  Level FlightAware ADS-B (EGCW)
06:58AM 54.2619 -2.3701 333° Northwest 483 556 30,000  Level FlightAware ADS-B (EGPK / PIK)
06:58AM 54.3232 -2.4233 333° Northwest 480 552 30,000  Level FlightAware ADS-B (EGNT / NCL)
06:59AM 54.3820 -2.4742 333° Northwest 475 547 30,000  Level FlightAware ADS-B (EGXU / HRT)
06:59AM 54.4426 -2.5264 333° Northwest 469 540 30,000  Level FlightAware ADS-B (EGCC / MAN)
07:00AM 54.4999 -2.5765 333° Northwest 464 534 30,000  Level FlightAware ADS-B (EGNT / NCL)
07:00AM 54.5595 -2.6282 333° Northwest 462 532 30,000  Level FlightAware ADS-B (EGPH / EDI)
07:01AM 54.6155 -2.6763 333° Northwest 460 529 30,000  Level FlightAware ADS-B (EGNT / NCL)
07:01AM 54.6553 -2.7113 332° Northwest 454 522 30,000  Level FlightAware ADS-B (EGPK / PIK)
07:02AM 54.7128 -2.7633 333° Northwest 465 535 30,000  Level FlightAware ADS-B (EGNT / NCL)
07:02AM 54.7296 -2.7769 332° Northwest 458 527 30,000  Level FlightAware ADS-B (EGPK / PIK)
07:02AM 54.7912 -2.8326 333° Northwest 464 534 30,000  Level FlightAware ADS-B (EGNT / NCL)
07:03AM 54.8526 -2.8870 333° Northwest 467 537 30,000  Level FlightAware ADS-B (EGAA / BFS)
07:03AM 54.9138 -2.9414 333° Northwest 465 535 30,000  Level FlightAware ADS-B (EGPH / EDI)
07:04AM 54.9565 -2.9788 332° Northwest 458 527 30,000  Level FlightAware ADS-B (EGPK / PIK)
07:04AM 55.0264 -3.0420 333° Northwest 463 533 30,000  Level FlightAware ADS-B (EGPF / GLA)
07:05AM 55.0679 -3.0776 332° Northwest 454 522 30,000  Level FlightAware ADS-B
07:05AM 55.0993 -3.1068 332° Northwest 454 522 30,000  Level FlightAware ADS-B
07:05AM 55.1189 -3.1237 333° Northwest 459 528 30,000  Level FlightAware ADS-B (SBCO / QNS)
07:06AM 55.1803 -3.1798 333° Northwest 456 525 30,000  Level FlightAware ADS-B (EGAA / BFS)
07:06AM 55.2374 -3.2322 333° Northwest 454 522 30,000  Level FlightAware ADS-B (EGPH / EDI)
07:07AM 55.2934 -3.2828 333° Northwest 452 520 30,000  Level FlightAware ADS-B (EGPF / GLA)
07:07AM 55.3689 -3.3521 333° Northwest 452 520 30,000  Level FlightAware ADS-B (EGPF / GLA)
07:08AM 55.4262 -3.4046 333° Northwest 450 518 30,000  Level FlightAware ADS-B (EGPK / PIK)
07:08AM 55.4804 -3.4537 333° Northwest 450 518 30,000  Level FlightAware ADS-B (EGPF / GLA)
07:09AM 55.4773 -3.4503 332° Northwest 450 518 30,000  Level FlightAware ADS-B
07:09AM 55.5177 -3.4876 333° Northwest 450 518 30,000  Level FlightAware ADS-B
07:09AM 55.5789 -3.5440 332° Northwest 453 521 30,000  Level FlightAware ADS-B (EGPK / PIK)
07:10AM 55.6441 -3.6059 332° Northwest 454 522 30,000  Level FlightAware ADS-B (EGAA / BFS)
07:10AM 55.7027 -3.6594 332° Northwest 455 524 30,000  Level FlightAware ADS-B (EGPF / GLA)
07:11AM 55.7672 -3.7202 332° Northwest 455 524 30,000  Level FlightAware ADS-B (EGPG)
07:12AM 55.8261 -3.7759 332° Northwest 455 524 30,000  Level FlightAware ADS-B (EGPG)
07:12AM 55.8808 -3.8269 332° Northwest 458 527 30,000  Level FlightAware ADS-B (EGPG)
07:13AM 55.9437 -3.8868 332° Northwest 459 528 30,000  Level FlightAware ADS-B (EGPK / PIK)
07:13AM 55.9943 -3.9347 332° Northwest 459 528 30,000  Level FlightAware ADS-B (EGAA / BFS)
07:14AM 56.0566 -3.9992 325° Northwest 449 517 30,000  Level FlightAware ADS-B (EGPG)
07:14AM 56.0993 -4.0533 323° Northwest 439 505 30,000  Level FlightAware ADS-B (EGPK / PIK)
07:14AM 56.1319 -4.0962 325° Northwest 445 512 30,000  Level FlightAware ADS-B (EGPF / GLA)
07:15AM 56.1935 -4.1750 324° Northwest 441 507 30,000  Level FlightAware ADS-B (EGPG)
07:15AM 56.2426 -4.2392 324° Northwest 438 504 30,000  Level FlightAware ADS-B (EGPG)
07:16AM 56.2915 -4.3008 324° Northwest 436 502 30,000  Level FlightAware ADS-B (EGPG)
07:16AM 56.3155 -4.3325 325° Northwest 437 503 30,000  Level FlightAware ADS-B (EGPG)
07:17AM 56.3822 -4.4034 330° Northwest 444 511 30,000  Level FlightAware ADS-B (EGPG)
07:17AM 56.4344 -4.4563 332° Northwest 448 516 30,000  Level FlightAware ADS-B (EGPG)
07:17AM 56.4492 -4.4705 331° Northwest 441 507 30,000  Level FlightAware ADS-B (EGPD / ABZ)
07:18AM 56.5060 -4.5234 333° Northwest 447 514 30,000  Level FlightAware ADS-B (EGPF / GLA)
07:19AM 56.5772 -4.5893 333° Northwest 446 513 30,000  Level FlightAware ADS-B (EGPG)
07:19AM 56.6322 -4.6398 333° Northwest 443 510 30,000  Level FlightAware ADS-B (EGAA / BFS)
07:19AM 56.6389 -4.6450 332° Northwest 436 502 30,000  Level FlightAware ADS-B (EGPK / PIK)
07:19AM 56.6650 -4.6705 332° Northwest 435 501 30,000  Level FlightAware ADS-B (EGPK / PIK)
07:20AM 56.7402 -4.7402 333° Northwest 441 507 30,000  Level FlightAware ADS-B (EGAA / BFS)
07:21AM 56.8057 -4.8018 332° Northwest 436 502 30,000  Level FlightAware ADS-B (EGPK / PIK)
07:21AM 56.8524 -4.8462 333° Northwest 439 505 30,000  Level FlightAware ADS-B (EGPH / EDI)
07:22AM 56.9252 -4.9155 333° Northwest 433 498 30,000  Level FlightAware ADS-B (EGPF / GLA)
07:22AM 56.9842 -4.9722 333° Northwest 432 497 30,000  Level FlightAware UK
07:23AM 56.9959 -4.9829 332° Northwest 433 498 30,000  Level FlightAware ADS-B (EGPF / GLA)
07:23AM 57.0731 -5.0566 332° Northwest 440 506 30,000  Level FlightAware ADS-B (EGPF / GLA)
07:24AM 57.1310 -5.1119 333° Northwest 440 506 30,000  Level FlightAware ADS-B (EGPD / ABZ)
07:24AM 57.1456 -5.1257 332° Northwest 439 505 30,000  Level FlightAware ADS-B (EGPK / PIK)
07:24AM 57.1984 -5.1820 332° Northwest 434 499 30,000  Level FlightAware UK
07:25AM 57.2181 -5.2036 328° Northwest 435 501 30,000  Level FlightAware ADS-B (EGPH / EDI)
07:25AM 57.2660 -5.2583 329° Northwest 435 501 30,000  Level FlightAware ADS-B (EGPH / EDI)
07:26AM 57.3276 -5.3276 329° Northwest 435 501 30,000  Level FlightAware ADS-B (EGPH / EDI)
07:26AM 57.3852 -5.3908 329° Northwest 435 501 30,000  Level FlightAware ADS-B (EGPF / GLA)
07:27AM 57.4543 -5.4667 329° Northwest 432 497 30,000  Level FlightAware ADS-B (EGPF / GLA)
07:28AM 57.4430 -5.4553 329° Northwest 430 495 30,000  Level FlightAware ADS-B (EGPH / EDI)
07:28AM 57.5789 -5.6075 329° Northwest 432 497 30,000  Level FlightAware UK
07:28AM 57.5948 -5.6252 329° Northwest 433 498 30,000  Level FlightAware ADS-B (EGPF / GLA)
07:29AM 57.6503 -5.6868 329° Northwest 435 501 30,000  Level FlightAware ADS-B (EGPF / GLA)
07:29AM 57.7055 -5.7492 329° Northwest 436 502 30,000  Level FlightAware ADS-B (EGPH / EDI)
07:30AM 57.7568 -5.8081 329° Northwest 438 504 30,000  Level FlightAware ADS-B (EGPF / GLA)
07:30AM 57.8258 -5.8871 329° Northwest 439 505 30,000  Level FlightAware ADS-B (EGPF / GLA)
07:31AM 57.8956 -5.9665 329° Northwest 440 506 30,000  Level FlightAware ADS-B (EGPF / GLA)
07:32AM 57.9515 -6.0318 329° Northwest 442 509 30,000  Level FlightAware UK
07:32AM 57.9697 -6.0527 329° Northwest 442 509 30,000  Level FlightAware ADS-B (EGPF / GLA)
07:33AM 58.0388 -6.1309 328° Northwest 441 507 30,000  Level FlightAware ADS-B (EGPF / GLA)
07:33AM 58.1082 -6.2132 328° Northwest 444 511 30,000  Level FlightAware UK
07:34AM 58.1604 -6.2744 328° Northwest 446 513 30,000  Level FlightAware UK
07:34AM 58.2129 -6.3361 328° Northwest 448 516 30,000  Level FlightAware UK
07:35AM 58.2756 -6.4104 328° Northwest 448 516 30,000  Level FlightAware UK
07:35AM 58.3280 -6.4731 328° Northwest 448 516 30,000  Level FlightAware UK
07:36AM 58.3809 -6.5356 328° Northwest 448 516 30,000  Level FlightAware UK
07:36AM 58.4336 -6.5985 328° Northwest 448 516 30,000  Level FlightAware UK
07:37AM 58.4859 -6.6613 328° Northwest 448 516 30,000  Level FlightAware UK
07:37AM 58.5384 -6.7248 328° Northwest 448 516 30,000  Level FlightAware UK
07:38AM 58.5911 -6.7882 328° Northwest 450 518 30,000  Level FlightAware UK
07:38AM 58.6440 -6.8527 328° Northwest 454 522 30,000  Level FlightAware UK
07:39AM 58.6978 -6.9179 328° Northwest 456 525 30,000  Level FlightAware UK
07:39AM 58.7512 -6.9832 328° Northwest 456 525 30,000  Level FlightAware UK
07:40AM 58.8045 -7.0487 327° Northwest 456 525 30,000  Level FlightAware UK
07:40AM 58.8578 -7.1143 328° Northwest 456 525 30,000  Level FlightAware UK
07:41AM 58.9111 -7.1797 328° Northwest 454 522 30,000  Level FlightAware UK
07:41AM 58.9641 -7.2454 327° Northwest 454 522 30,000  Level FlightAware UK
07:42AM 59.0168 -7.3111 327° Northwest 452 520 30,000  Level FlightAware UK
07:42AM 59.0693 -7.3769 327° Northwest 452 520 30,000  Level FlightAware UK
07:43AM 59.1218 -7.4428 327° Northwest 452 520 30,000  Level FlightAware UK
07:43AM 59.1743 -7.5088 327° Northwest 452 520 30,000  Level FlightAware UK
07:44AM 59.2267 -7.5749 327° Northwest 450 518 30,000  Level FlightAware UK
07:44AM 59.2792 -7.6413 327° Northwest 452 520 30,000  Level FlightAware UK
07:45AM 59.3316 -7.7081 327° Northwest 452 520 30,000  Level FlightAware UK
07:45AM 59.3839 -7.7753 327° Northwest 454 522 30,000  Level FlightAware UK
07:46AM 59.4365 -7.8428 327° Northwest 454 522 30,000  Level FlightAware UK
07:46AM 59.4995 -7.9233 327° Northwest 456 525 30,000  Level FlightAware UK
07:47AM 59.5524 -7.9916 327° Northwest 456 525 30,000  Level FlightAware UK
07:47AM 59.6052 -8.0604 327° Northwest 456 525 30,000  Level FlightAware UK
07:48AM 59.6579 -8.1294 327° Northwest 456 525 30,000  Level FlightAware UK
07:48AM 59.7107 -8.1985 327° Northwest 456 525 30,000  Level FlightAware UK
07:49AM 59.7635 -8.2675 327° Northwest 458 527 30,000  Level FlightAware UK
07:49AM 59.8162 -8.3371 326° Northwest 458 527 30,000  Level FlightAware UK
07:50AM 59.8691 -8.4072 326° Northwest 458 527 30,000  Level FlightAware UK
07:50AM 59.9217 -8.4773 326° Northwest 456 525 30,000  Level FlightAware UK
07:51AM 59.9744 -8.5476 326° Northwest 458 527 30,000  Level FlightAware UK
07:51AM 60.0271 -8.6182 326° Northwest 458 527 30,000  Level FlightAware UK
07:53AM 60.1153 -8.8394 309° West  Level Estimated
08:00AM 60.6518 -10.2323 309° West  Level Estimated
08:01AM 60.7272 -10.4351 307° West  Level Estimated
08:02AM 60.8023 -10.6388 307° West  Level Estimated
08:03AM 60.8772 -10.8435 307° West  Level Estimated
08:04AM 60.9517 -11.0491 307° West  Level Estimated
08:05AM 61.0259 -11.2557 307° West  Level Estimated
08:06AM 61.0998 -11.4632 306° West  Level Estimated
08:07AM 61.1733 -11.6718 306° West  Level Estimated
08:08AM 61.2465 -11.8813 306° West  Level Estimated
08:09AM 61.3195 -12.0917 306° West  Level Estimated
08:10AM 61.3920 -12.3032 306° West  Level Estimated
08:11AM 61.4643 -12.5156 306° West  Level Estimated
08:12AM 61.5362 -12.7290 305° West  Level Estimated
08:13AM 61.6078 -12.9434 305° West  Level Estimated
08:14AM 61.6791 -13.1588 305° West  Level Estimated
08:15AM 61.7500 -13.3752 305° West  Level Estimated
08:16AM 61.8205 -13.5926 305° West  Level Estimated
08:17AM 61.8908 -13.8110 304° West  Level Estimated
08:18AM 61.9606 -14.0304 304° West  Level Estimated
08:19AM 62.0302 -14.2508 304° West  Level Estimated
08:20AM 62.0993 -14.4722 304° West  Level Estimated
08:21AM 62.1682 -14.6946 304° West  Level Estimated
08:22AM 62.2366 -14.9180 303° West  Level Estimated
08:23AM 62.3047 -15.1425 303° West  Level Estimated
08:24AM 62.3725 -15.3679 303° West  Level Estimated
08:25AM 62.4398 -15.5944 303° West  Level Estimated
08:26AM 62.5068 -15.8219 303° West  Level Estimated
08:27AM 62.5734 -16.0504 302° West  Level Estimated
08:28AM 62.6397 -16.2799 302° West  Level Estimated
08:29AM 62.7056 -16.5105 302° West  Level Estimated
08:30AM 62.7711 -16.7421 302° West  Level Estimated
08:31AM 62.8362 -16.9747 302° West  Level Estimated
08:32AM 62.9009 -17.2083 301° West  Level Estimated
08:33AM 62.9653 -17.4430 301° West  Level Estimated
08:34AM 63.0292 -17.6787 301° West  Level Estimated
08:35AM 63.0928 -17.9154 301° West  Level Estimated
08:36AM 63.1559 -18.1532 301° West  Level Estimated
08:37AM 63.2187 -18.3920 300° West  Level Estimated
08:38AM 63.2811 -18.6319 300° West  Level Estimated
08:39AM 63.3430 -18.8728 300° West  Level Estimated
08:40AM 63.4046 -19.1147 300° West  Level Estimated
08:41AM 63.4657 -19.3576 299° West  Level Estimated
08:42AM 63.5264 -19.6016 299° West  Level Estimated
08:43AM 63.5867 -19.8467 299° West  Level Estimated
08:44AM 63.6466 -20.0927 299° West  Level Estimated
08:45AM 63.7061 -20.3398 299° West  Level Estimated
08:46AM 63.7651 -20.5880 298° West  Level Estimated
08:47AM 63.8237 -20.8372 298° West  Level Estimated
08:48AM 63.8819 -21.0874 298° West  Level Estimated
08:49AM 63.9397 -21.3386 298° West  Level Estimated
08:50AM 63.9970 -21.5909 297° West  Level Estimated
08:51AM 64.0539 -21.8442 297° West  Level Estimated
08:52AM 64.1103 -22.0986 297° West  Level Estimated
08:53AM 64.1663 -22.3539 297° West  Level Estimated
08:54AM 64.2218 -22.6103 297° West  Level Estimated
08:55AM 64.2769 -22.8678 296° West  Level Estimated
08:56AM 64.3315 -23.1262 296° West  Level Estimated
08:57AM 64.3857 -23.3857 296° West  Level Estimated
08:58AM 64.4394 -23.6462 296° West  Level Estimated
08:59AM 64.4927 -23.9077 295° West  Level Estimated
09:00AM 64.5454 -24.1702 295° West  Level Estimated
09:01AM 64.5978 -24.4338 295° West  Level Estimated
09:02AM 64.6496 -24.6984 295° West  Level Estimated
09:03AM 64.7010 -24.9639 294° West  Level Estimated
09:04AM 64.7519 -25.2305 294° West  Level Estimated
09:05AM 64.8023 -25.4981 294° West  Level Estimated
09:06AM 64.8522 -25.7666 294° West  Level Estimated
09:07AM 64.9017 -26.0362 293° West  Level Estimated
09:08AM 64.9506 -26.3068 293° West  Level Estimated
09:09AM 64.9991 -26.5783 293° West  Level Estimated
09:10AM 65.0471 -26.8508 293° West  Level Estimated
09:11AM 65.0945 -27.1243 293° West  Level Estimated
09:12AM 65.1415 -27.3988 292° West  Level Estimated
09:13AM 65.1880 -27.6742 292° West  Level Estimated
09:14AM 65.2339 -27.9507 292° West  Level Estimated
09:15AM 65.2794 -28.2280 292° West  Level Estimated
09:16AM 65.3243 -28.5063 291° West  Level Estimated
09:17AM 65.3687 -28.7856 291° West  Level Estimated
09:18AM 65.4127 -29.0658 291° West  Level Estimated
09:19AM 65.4560 -29.3469 290° West  Level Estimated
09:20AM 65.4989 -29.6290 290° West  Level Estimated
09:21AM 65.5412 -29.9120 290° West  Level Estimated
09:22AM 65.5831 -30.1959 290° West  Level Estimated
09:23AM 65.6243 -30.4807 289° West  Level Estimated
09:24AM 65.6651 -30.7664 289° West  Level Estimated
09:25AM 65.7053 -31.0530 289° West  Level Estimated
09:26AM 65.7449 -31.3405 289° West  Level Estimated
09:27AM 65.7841 -31.6289 288° West  Level Estimated
09:28AM 65.8227 -31.9181 288° West  Level Estimated
09:29AM 65.8607 -32.2082 288° West  Level Estimated
09:30AM 65.8982 -32.4992 288° West  Level Estimated
09:31AM 65.9351 -32.7910 287° West  Level Estimated
09:32AM 65.9715 -33.0836 287° West  Level Estimated
09:33AM 66.0073 -33.3771 287° West  Level Estimated
09:34AM 66.0426 -33.6714 287° West  Level Estimated
09:35AM 66.0773 -33.9665 286° West  Level Estimated
09:36AM 66.1114 -34.2624 286° West  Level Estimated
09:37AM 66.1450 -34.5591 286° West  Level Estimated
09:38AM 66.1780 -34.8565 285° West  Level Estimated
09:39AM 66.2104 -35.1548 285° West  Level Estimated
09:40AM 66.2423 -35.4538 285° West  Level Estimated
09:41AM 66.2735 -35.7535 285° West  Level Estimated
09:42AM 66.3042 -36.0540 284° West  Level Estimated
09:43AM 66.3343 -36.3552 284° West  Level Estimated
09:44AM 66.3639 -36.6572 284° West  Level Estimated
09:45AM 66.3928 -36.9598 284° West  Level Estimated
09:46AM 66.4212 -37.2631 283° West  Level Estimated
09:47AM 66.4489 -37.5672 283° West  Level Estimated
09:48AM 66.4761 -37.8718 283° West  Level Estimated
09:49AM 66.5027 -38.1772 282° West  Level Estimated
09:50AM 66.5287 -38.4832 282° West  Level Estimated
09:51AM 66.5540 -38.7898 282° West  Level Estimated
09:52AM 66.5788 -39.0970 282° West  Level Estimated
09:53AM 66.6030 -39.4049 281° West  Level Estimated
09:54AM 66.6266 -39.7133 281° West  Level Estimated
09:55AM 66.6496 -40.0223 281° West  Level Estimated
09:56AM 66.6719 -40.3319 280° West  Level Estimated
09:57AM 66.6937 -40.6420 280° West  Level Estimated
09:58AM 66.7148 -40.9527 280° West  Level Estimated
09:59AM 66.7354 -41.2639 280° West  Level Estimated
10:00AM 66.7553 -41.5756 279° West  Level Estimated
10:01AM 66.7746 -41.8878 279° West  Level Estimated
10:02AM 66.7933 -42.2005 279° West  Level Estimated
10:03AM 66.8113 -42.5137 278° West  Level Estimated
10:04AM 66.8288 -42.8273 278° West  Level Estimated
10:05AM 66.8456 -43.1413 278° West  Level Estimated
10:06AM 66.8618 -43.4558 278° West  Level Estimated
10:07AM 66.8774 -43.7707 277° West  Level Estimated
10:08AM 66.8923 -44.0860 277° West  Level Estimated
10:09AM 66.9067 -44.4016 277° West  Level Estimated
10:10AM 66.9203 -44.7177 276° West  Level Estimated
10:11AM 66.9334 -45.0340 276° West  Level Estimated
10:12AM 66.9458 -45.3507 276° West  Level Estimated
10:13AM 66.9577 -45.6677 276° West  Level Estimated
10:14AM 66.9688 -45.9851 275° West  Level Estimated
10:15AM 66.9794 -46.3026 275° West  Level Estimated
10:16AM 66.9893 -46.6205 275° West  Level Estimated
10:17AM 66.9985 -46.9386 274° West  Level Estimated
10:18AM 67.0072 -47.2570 274° West  Level Estimated
10:19AM 67.0152 -47.5755 274° West  Level Estimated
10:20AM 67.0225 -47.8943 274° West  Level Estimated
10:21AM 67.0293 -48.2132 273° West  Level Estimated
10:22AM 67.0353 -48.5323 273° West  Level Estimated
10:23AM 67.0408 -48.8516 273° West  Level Estimated
10:24AM 67.0456 -49.1710 272° West  Level Estimated
10:25AM 67.0498 -49.4905 272° West  Level Estimated
10:26AM 67.0533 -49.8102 272° West  Level Estimated
10:27AM 67.0562 -50.1299 271° West  Level Estimated
10:28AM 67.0584 -50.4496 271° West  Level Estimated
10:29AM 67.0600 -50.7695 271° West  Level Estimated
10:30AM 67.0610 -51.0893 271° West  Level Estimated
10:31AM 67.0613 -51.4092 270° West  Level Estimated
10:32AM 67.0610 -51.7291 270° West  Level Estimated
10:33AM 67.0600 -52.0489 270° West  Level Estimated
10:34AM 67.0584 -52.3688 269° West  Level Estimated
10:35AM 67.0562 -52.6885 269° West  Level Estimated
10:36AM 67.0533 -53.0083 269° West  Level Estimated
10:37AM 67.0498 -53.3279 269° West  Level Estimated
10:38AM 67.0456 -53.6474 268° West  Level Estimated
10:39AM 67.0408 -53.9668 268° West  Level Estimated
10:40AM 67.0354 -54.2861 268° West  Level Estimated
10:41AM 67.0293 -54.6052 267° West  Level Estimated
10:42AM 67.0226 -54.9241 267° West  Level Estimated
10:43AM 67.0152 -55.2429 267° West  Level Estimated
10:44AM 67.0072 -55.5615 266° West  Level Estimated
10:45AM 66.9986 -55.8798 266° West  Level Estimated
10:46AM 66.9893 -56.1979 266° West  Level Estimated
10:47AM 66.9794 -56.5158 266° West  Level Estimated
10:48AM 66.9689 -56.8334 265° West  Level Estimated
10:49AM 66.9577 -57.1507 265° West  Level Estimated
10:50AM 66.9459 -57.4677 265° West  Level Estimated
10:51AM 66.9335 -57.7844 264° West  Level Estimated
10:52AM 66.9204 -58.1008 264° West  Level Estimated
10:53AM 66.9067 -58.4168 264° West  Level Estimated
10:54AM 66.8924 -58.7324 264° West  Level Estimated
10:55AM 66.8775 -59.0477 263° West  Level Estimated
10:56AM 66.8619 -59.3626 263° West  Level Estimated
10:57AM 66.8457 -59.6771 263° West  Level Estimated
10:58AM 66.8289 -59.9911 262° West  Level Estimated
10:59AM 66.8114 -60.3048 262° West  Level Estimated
11:00AM 66.7934 -60.6179 262° West  Level Estimated
11:01AM 66.7747 -60.9306 262° West  Level Estimated
11:02AM 66.7541 -61.2635 261° West  Level Estimated
11:03AM 66.7328 -61.5959 261° West  Level Estimated
11:04AM 66.7108 -61.9277 261° West  Level Estimated
11:05AM 66.6881 -62.2589 260° West  Level Estimated
11:06AM 66.6647 -62.5894 260° West  Level Estimated
11:07AM 66.6406 -62.9193 260° West  Level Estimated
11:08AM 66.6158 -63.2486 259° West  Level Estimated
11:09AM 66.5904 -63.5772 259° West  Level Estimated
11:10AM 66.5642 -63.9051 259° West  Level Estimated
11:11AM 66.5374 -64.2324 259° West  Level Estimated
11:12AM 66.5099 -64.5589 258° West  Level Estimated
11:13AM 66.4817 -64.8847 258° West  Level Estimated
11:14AM 66.4528 -65.2097 258° West  Level Estimated
11:15AM 66.4233 -65.5340 257° West  Level Estimated
11:16AM 66.3931 -65.8575 257° West  Level Estimated
11:17AM 66.3622 -66.1802 257° West  Level Estimated
11:18AM 66.3307 -66.5021 256° West  Level Estimated
11:19AM 66.2984 -66.8232 256° West  Level Estimated
11:20AM 66.2656 -67.1434 256° West  Level Estimated
11:21AM 66.2320 -67.4629 256° West  Level Estimated
11:22AM 66.1979 -67.7814 255° West  Level Estimated
11:23AM 66.1630 -68.0991 255° West  Level Estimated
11:24AM 66.1275 -68.4159 255° West  Level Estimated
11:25AM 66.0914 -68.7319 254° West  Level Estimated
11:26AM 66.0546 -69.0469 254° West  Level Estimated
11:27AM 66.0172 -69.3610 254° West  Level Estimated
11:28AM 65.9792 -69.6742 254° West  Level Estimated
11:29AM 65.9405 -69.9864 253° West  Level Estimated
11:30AM 65.9012 -70.2977 253° West  Level Estimated
11:31AM 65.8612 -70.6080 253° West  Level Estimated
11:32AM 65.8206 -70.9174 252° West  Level Estimated
11:33AM 65.7794 -71.2257 252° West  Level Estimated
11:34AM 65.7376 -71.5331 252° West  Level Estimated
11:35AM 65.6952 -71.8395 252° West  Level Estimated
11:36AM 65.6522 -72.1448 251° West  Level Estimated
11:37AM 65.6085 -72.4492 251° West  Level Estimated
11:38AM 65.5642 -72.7525 251° West  Level Estimated
11:39AM 65.5194 -73.0548 250° West  Level Estimated
11:40AM 65.4739 -73.3560 250° West  Level Estimated
11:41AM 65.4279 -73.6562 250° West  Level Estimated
11:42AM 65.3812 -73.9553 250° West  Level Estimated
11:43AM 65.3340 -74.2533 249° West  Level Estimated
11:44AM 65.2862 -74.5503 249° West  Level Estimated
11:45AM 65.2377 -74.8462 249° West  Level Estimated
11:46AM 65.1888 -75.1410 249° West  Level Estimated
11:47AM 65.1392 -75.4348 248° West  Level Estimated
11:48AM 65.0891 -75.7274 248° West  Level Estimated
11:49AM 65.0384 -76.0189 248° West  Level Estimated
11:50AM 64.9871 -76.3093 247° West  Level Estimated
11:51AM 64.9353 -76.5985 247° West  Level Estimated
11:52AM 64.8829 -76.8867 247° West  Level Estimated
11:53AM 64.8299 -77.1737 247° West  Level Estimated
11:54AM 64.7765 -77.4596 246° West  Level Estimated
11:55AM 64.7224 -77.7444 246° West  Level Estimated
11:56AM 64.6678 -78.0280 246° West  Level Estimated
11:57AM 64.6127 -78.3105 246° West  Level Estimated
11:58AM 64.5570 -78.5918 245° Southwest  Level Estimated
11:59AM 64.5008 -78.8719 245° Southwest  Level Estimated
12:00PM 64.4441 -79.1510 245° Southwest  Level Estimated
12:01PM 64.3869 -79.4288 245° Southwest  Level Estimated
12:02PM 64.3291 -79.7055 244° Southwest  Level Estimated
12:03PM 64.2708 -79.9810 244° Southwest  Level Estimated
12:04PM 64.2120 -80.2554 244° Southwest  Level Estimated
12:05PM 64.1526 -80.5286 244° Southwest  Level Estimated
12:06PM 64.0928 -80.8006 243° Southwest  Level Estimated
12:07PM 64.0325 -81.0715 243° Southwest  Level Estimated
12:08PM 63.9716 -81.3412 243° Southwest  Level Estimated
12:09PM 63.9103 -81.6097 243° Southwest  Level Estimated
12:10PM 63.8485 -81.8770 242° Southwest  Level Estimated
12:11PM 63.7861 -82.1432 242° Southwest  Level Estimated
12:12PM 63.7233 -82.4081 242° Southwest  Level Estimated
12:13PM 63.6600 -82.6719 242° Southwest  Level Estimated
12:14PM 63.5962 -82.9345 241° Southwest  Level Estimated
12:15PM 63.5320 -83.1960 241° Southwest  Level Estimated
12:16PM 63.4673 -83.4562 241° Southwest  Level Estimated
12:17PM 63.4021 -83.7153 241° Southwest  Level Estimated
12:18PM 63.3364 -83.9732 241° Southwest  Level Estimated
12:19PM 63.2703 -84.2299 240° Southwest  Level Estimated
12:20PM 63.2037 -84.4855 240° Southwest  Level Estimated
12:21PM 63.1366 -84.7399 240° Southwest  Level Estimated
12:22PM 63.0691 -84.9930 240° Southwest  Level Estimated
12:23PM 63.0012 -85.2450 239° Southwest  Level Estimated
12:24PM 62.9328 -85.4959 239° Southwest  Level Estimated
12:25PM 62.8639 -85.7456 239° Southwest  Level Estimated
12:26PM 62.7947 -85.9940 239° Southwest  Level Estimated
12:27PM 62.7250 -86.2414 238° Southwest  Level Estimated
12:28PM 62.6548 -86.4875 238° Southwest  Level Estimated
12:29PM 62.5842 -86.7325 238° Southwest  Level Estimated
12:30PM 62.5132 -86.9763 238° Southwest  Level Estimated
12:31PM 62.4418 -87.2190 238° Southwest  Level Estimated
12:32PM 62.3700 -87.4605 237° Southwest  Level Estimated
12:33PM 62.2977 -87.7009 237° Southwest  Level Estimated
12:34PM 62.2250 -87.9400 237° Southwest  Level Estimated
12:35PM 62.1520 -88.1781 237° Southwest  Level Estimated
12:36PM 62.0785 -88.4150 237° Southwest  Level Estimated
12:37PM 62.0046 -88.6507 236° Southwest  Level Estimated
12:38PM 61.9303 -88.8853 236° Southwest  Level Estimated
12:39PM 61.8556 -89.1188 236° Southwest  Level Estimated
12:40PM 61.7805 -89.3511 236° Southwest  Level Estimated
12:41PM 61.7050 -89.5823 236° Southwest  Level Estimated
12:42PM 61.6292 -89.8123 235° Southwest  Level Estimated
12:43PM 61.5529 -90.0413 235° Southwest  Level Estimated
12:44PM 61.4763 -90.2691 235° Southwest  Level Estimated
12:45PM 61.3993 -90.4957 235° Southwest  Level Estimated
12:46PM 61.3219 -90.7213 235° Southwest  Level Estimated
12:47PM 61.2441 -90.9457 234° Southwest  Level Estimated
12:48PM 61.1660 -91.1691 234° Southwest  Level Estimated
12:49PM 61.0875 -91.3913 234° Southwest  Level Estimated
12:50PM 61.0087 -91.6124 234° Southwest  Level Estimated
12:51PM 60.9295 -91.8325 234° Southwest  Level Estimated
12:52PM 60.8499 -92.0514 233° Southwest  Level Estimated
12:53PM 60.7700 -92.2692 233° Southwest  Level Estimated
12:54PM 60.6897 -92.4860 233° Southwest  Level Estimated
12:55PM 60.6091 -92.7017 233° Southwest  Level Estimated
12:56PM 60.5281 -92.9163 233° Southwest  Level Estimated
12:57PM 60.4468 -93.1298 232° Southwest  Level Estimated
12:58PM 60.3652 -93.3423 232° Southwest  Level Estimated
12:59PM 60.2832 -93.5537 232° Southwest  Level Estimated
01:00PM 60.2009 -93.7640 232° Southwest  Level Estimated
01:01PM 60.1182 -93.9733 232° Southwest  Level Estimated
01:02PM 60.0352 -94.1815 231° Southwest  Level Estimated
01:03PM 59.9519 -94.3887 231° Southwest  Level Estimated
01:04PM 59.8683 -94.5948 231° Southwest  Level Estimated
01:05PM 59.7844 -94.8000 231° Southwest  Level Estimated
01:06PM 59.7001 -95.0040 231° Southwest  Level Estimated
01:06PM 62.5667 -103.6667 230° Southwest 480 552 36,000  Level Edmonton Center
01:07PM 59.6155 -95.2071 231° Southwest  Level Estimated
01:07PM 62.4667 -103.8500 220° Southwest 470 541 36,000  Level Edmonton Center
01:08PM 59.5306 -95.4091 230° Southwest  Level Estimated
01:08PM 62.3667 -104.0000 215° Southwest 470 541 36,000  Level Edmonton Center
01:09PM 59.4454 -95.6101 230° Southwest  Level Estimated
01:09PM 62.2500 -104.1833 216° Southwest 470 541 36,000  Level Edmonton Center
01:10PM 59.3599 -95.8101 230° Southwest  Level Estimated
01:10PM 62.1500 -104.3667 221° Southwest 470 541 36,000  Level Edmonton Center
01:11PM 59.2741 -96.0091 230° Southwest  Level Estimated
01:11PM 62.0500 -104.5167 215° Southwest 470 541 36,000  Level Edmonton Center
01:12PM 61.9500 -104.7000 221° Southwest 470 541 36,000  Level Edmonton Center
01:13PM 61.8333 -104.8833 217° Southwest 470 541 36,000  Level Edmonton Center
01:14PM 61.7333 -105.0667 221° Southwest 470 541 36,000  Level Edmonton Center
01:15PM 61.6167 -105.2500 217° Southwest 470 541 36,000  Level Edmonton Center
01:16PM 61.5167 -105.4167 219° Southwest 470 541 36,000  Level Edmonton Center
01:17PM 61.4000 -105.6000 217° Southwest 470 541 36,000  Level Edmonton Center
01:18PM 61.3000 -105.7333 213° Southwest 480 552 36,000  Level Edmonton Center
01:19PM 61.2000 -105.9000 219° Southwest 470 541 36,000  Level Edmonton Center
01:20PM 61.0833 -106.0833 217° Southwest 470 541 36,000  Level Edmonton Center
01:21PM 60.9833 -106.2500 219° Southwest 470 541 36,000  Level Edmonton Center
01:22PM 60.8833 -106.3833 213° Southwest 470 541 36,000  Level Edmonton Center
01:23PM 60.7667 -106.5500 215° Southwest 470 541 36,000  Level Edmonton Center
01:24PM 60.6667 -106.7167 219° Southwest 470 541 36,000  Level Edmonton Center
01:25PM 60.5500 -106.8833 215° Southwest 470 541 36,000  Level Edmonton Center
01:26PM 60.4500 -107.0167 213° Southwest 460 529 36,000  Level Edmonton Center
01:27PM 60.3500 -107.1833 220° Southwest 470 541 36,000  Level Edmonton Center
01:28PM 60.2500 -107.3500 220° Southwest 470 541 36,000  Level Edmonton Center
01:30PM 60.0167 -107.6833 216° Southwest 470 541 36,000  Level Edmonton Center
01:31PM 59.9167 -107.8000 210° Southwest 470 541 36,000  Level Edmonton Center
01:32PM 59.8000 -107.9667 216° Southwest 470 541 36,000  Level Edmonton Center
01:33PM 59.7000 -108.1167 217° Southwest 470 541 36,000  Level Edmonton Center
01:34PM 59.6000 -108.2500 214° Southwest 470 541 36,000  Level Edmonton Center
01:35PM 59.4833 -108.4000 213° Southwest 470 541 36,000  Level Edmonton Center
01:36PM 59.3833 -108.5667 220° Southwest 470 541 36,000  Level Edmonton Center
01:37PM 59.2833 -108.7167 217° Southwest 470 541 36,000  Level Edmonton Center
01:38PM 59.1500 -108.8333 204° Southwest 470 541 36,000  Level Edmonton Center
01:39PM 59.0500 -108.9833 218° Southwest 470 541 36,000  Level Edmonton Center
01:40PM 58.9500 -109.1000 211° Southwest 470 541 36,000  Level Edmonton Center
01:41PM 58.8000 -109.2167 202° Southwest 480 552 36,000  Level Edmonton Center
01:42PM 58.6833 -109.3333 207° Southwest 480 552 36,000  Level Edmonton Center
01:43PM 58.5500 -109.4500 205° Southwest 480 552 36,000  Level Edmonton Center
01:44PM 58.4500 -109.5667 211° Southwest 480 552 36,000  Level Edmonton Center
01:45PM 58.3333 -109.6833 208° Southwest 480 552 36,000  Level Edmonton Center
01:46PM 58.2000 -109.8000 205° Southwest 480 552 36,000  Level Edmonton Center
01:47PM 58.0833 -109.9000 204° Southwest 480 552 36,000  Level Edmonton Center
01:48PM 57.9500 -110.0167 205° Southwest 480 552 36,000  Level Edmonton Center
01:49PM 57.8333 -110.1000 201° Southwest 480 552 36,000  Level Edmonton Center
01:50PM 57.7167 -110.2000 205° Southwest 480 552 36,000  Level Edmonton Center
01:51PM 57.5833 -110.3167 205° Southwest 480 552 36,000  Level Edmonton Center
01:52PM 57.4833 -110.4167 208° Southwest 480 552 36,000  Level Edmonton Center
01:53PM 57.3333 -110.5333 203° Southwest 480 552 36,000  Level Edmonton Center
01:54PM 57.2333 -110.6333 208° Southwest 480 552 36,000  Level Edmonton Center
01:55PM 57.1000 -110.7333 202° Southwest 480 552 36,000  Level Edmonton Center
01:56PM 56.9833 -110.8500 209° Southwest 480 552 36,000  Level Edmonton Center
01:57PM 56.8667 -110.9500 205° Southwest 480 552 36,000  Level Edmonton Center
01:58PM 56.7333 -111.0500 202° Southwest 480 552 36,000  Level Edmonton Center
01:59PM 56.6167 -111.1667 209° Southwest 480 552 36,000  Level Edmonton Center
02:00PM 56.4833 -111.2667 203° Southwest 480 552 36,000  Level Edmonton Center
02:01PM 56.3667 -111.3667 205° Southwest 470 541 36,000  Level Edmonton Center
02:02PM 56.2333 -111.4667 203° Southwest 470 541 36,000  Level Edmonton Center
02:03PM 56.1167 -111.5667 206° Southwest 480 552 36,000  Level Edmonton Center
02:04PM 56.0000 -111.6667 206° Southwest 480 552 36,000  Level Edmonton Center
02:05PM 55.8833 -111.7667 206° Southwest 470 541 36,000  Level Edmonton Center
02:06PM 55.7667 -111.8667 206° Southwest 470 541 36,000  Level Edmonton Center
02:07PM 55.6500 -111.9667 206° Southwest 470 541 36,000  Level Edmonton Center
02:08PM 55.5333 -112.0667 206° Southwest 470 541 36,000  Level Edmonton Center
02:09PM 55.4000 -112.1667 203° Southwest 470 541 36,000  Level Edmonton Center
02:10PM 55.2667 -112.2833 207° Southwest 480 552 36,000  Level Edmonton Center
02:15PM 54.7218 -112.7112 204° Southwest 493 567 36,000  Level FlightAware ADS-B (CYXD)
02:16PM 54.5666 -112.8323 204° Southwest 491 565 36,000  Level FlightAware ADS-B (CYXD)
02:16PM 54.5041 -112.8819 204° Southwest 490 564 36,000  Level FlightAware ADS-B (CYXD)
02:17PM 54.4348 -112.9346 204° Southwest 491 565 36,000  Level FlightAware ADS-B (CYXD)
02:18PM 54.3180 -113.0251 204° Southwest 490 564 36,000  Level FlightAware ADS-B (CYXD)
02:19PM 54.2479 -113.0786 204° Southwest 488 562 36,000  Level FlightAware ADS-B (CYXD)
02:19PM 54.1571 -113.1476 204° Southwest 488 562 36,000  Level FlightAware ADS-B (CYXD)
02:21PM 54.0029 -113.2631 204° Southwest 490 564 36,000  Level FlightAware ADS-B (CYXD)
02:21PM 53.9396 -113.3113 204° Southwest 490 564 36,000  Level FlightAware ADS-B (CYXD)
02:22PM 53.8765 -113.3579 204° Southwest 490 564 36,000  Level FlightAware ADS-B (CYXD)
02:22PM 53.8120 -113.4072 204° Southwest 490 564 36,000  Level FlightAware ADS-B (CYXD)
02:23PM 53.7514 -113.4519 204° Southwest 489 563 36,000  Level FlightAware ADS-B (CYXD)
02:23PM 53.6921 -113.4965 204° Southwest 490 564 36,000  Level FlightAware ADS-B (CYXD)
02:24PM 53.6061 -113.5594 204° Southwest 491 565 36,000  Level FlightAware ADS-B (CYXD)
02:24PM 53.5438 -113.6053 204° Southwest 491 565 36,000  Level FlightAware ADS-B (CYXD)
02:25PM 53.4808 -113.6511 204° Southwest 491 565 36,000  Level FlightAware ADS-B (CYXD)
02:25PM 53.4089 -113.7043 204° Southwest 491 565 36,000  Level FlightAware ADS-B (CYXD)
02:26PM 53.3448 -113.7514 203° Southwest 491 565 36,000  Level FlightAware ADS-B (CYXD)
02:26PM 53.2846 -113.7951 203° Southwest 491 565 36,000  Level FlightAware ADS-B (CYXD)
02:27PM 53.1904 -113.8628 203° Southwest 491 565 36,000  Level FlightAware ADS-B (CYXD)
02:28PM 53.1287 -113.9057 203° Southwest 493 567 36,000  Level FlightAware ADS-B (CYXD)
02:28PM 53.0644 -113.9512 203° Southwest 494 568 36,000  Level FlightAware ADS-B (CYXD)
02:29PM 52.9992 -113.9964 203° Southwest 494 568 36,000 840 Level FlightAware ADS-B (CYXD)
02:29PM 52.9208 -114.0506 203° Southwest 494 568 37,000 1,380 Climbing FlightAware ADS-B (CYXD)
02:30PM 52.9208 -114.0506 203° Southwest 493 567 37,700 900 Climbing FlightAware ADS-B (CYXD)
02:30PM 52.7769 -114.1510 203° Southwest 494 568 38,000 180 Climbing FlightAware ADS-B (CYXD)
02:31PM 52.6844 -114.2146 203° Southwest 494 568 38,000  Level FlightAware ADS-B (CYXD)
02:32PM 52.6304 -114.2507 203° Southwest 495 570 38,000  Level FlightAware ADS-B (CYXD)
02:32PM 52.5167 -114.3167 203° Southwest 490 564 38,000  Level Edmonton Center
02:33PM 52.4000 -114.4000 204° Southwest 490 564 38,000  Level Edmonton Center
02:34PM 52.2667 -114.5167 208° Southwest 490 564 38,000  Level Edmonton Center
02:35PM 52.1500 -114.6000 204° Southwest 490 564 38,000  Level Edmonton Center
02:36PM 52.0333 -114.6833 204° Southwest 480 552 38,000  Level Edmonton Center
02:37PM 51.8833 -114.7500 195° South 480 552 38,000  Level Edmonton Center
02:38PM 51.7833 -114.8500 212° Southwest 480 552 38,000  Level Edmonton Center
02:39PM 51.6333 -114.9167 195° South 480 552 38,000  Level Edmonton Center
02:40PM 51.5333 -115.0000 207° Southwest 480 552 38,000  Level Edmonton Center
02:41PM 51.3833 -115.0833 199° South 480 552 38,000  Level Edmonton Center
02:42PM 51.2833 -115.1667 208° Southwest 480 552 38,000  Level Edmonton Center
02:43PM 51.1500 -115.2333 197° South 480 552 38,000  Level Edmonton Center
02:44PM 51.0167 -115.3167 201° Southwest 490 564 38,000  Level Edmonton Center
02:45PM 50.9167 -115.4333 216° Southwest 480 552 38,000  Level Edmonton Center
02:46PM 50.7833 -115.5333 205° Southwest 480 552 38,000  Level Edmonton Center
02:47PM 50.6500 -115.6000 198° South 490 564 38,000  Level Edmonton Center
02:48PM 50.5333 -115.7167 212° Southwest 490 564 38,000  Level Edmonton Center
02:49PM 50.4167 -115.8167 209° Southwest 490 564 38,000  Level Edmonton Center
02:50PM 50.2833 -115.9167 206° Southwest 490 564 38,000  Level Edmonton Center
02:51PM 50.1667 -116.0000 205° Southwest 480 552 38,000  Level Edmonton Center
02:52PM 50.0500 -116.1000 209° Southwest 480 552 38,000  Level Edmonton Center
02:53PM 49.9333 -116.1667 200° South 480 552 38,000  Level Edmonton Center
02:54PM 49.8000 -116.2667 206° Southwest 470 541 38,000  Level Edmonton Center
02:55PM 49.7000 -116.3500 208° Southwest 470 541 38,000  Level Edmonton Center
02:56PM 49.5667 -116.4500 206° Southwest 470 541 38,000  Level Edmonton Center
02:57PM 49.4500 -116.5167 200° South 480 552 38,000  Level Edmonton Center
02:58PM 49.3500 -116.6333 217° Southwest 480 552 38,000  Level Edmonton Center
02:59PM 49.2167 -116.7000 198° South 480 552 38,000  Level Edmonton Center
03:00PM 49.0833 -116.8000 206° Southwest 480 552 38,000  Level Edmonton Center
03:01PM 48.9667 -116.9000 209° Southwest 470 541 38,000  Level Edmonton Center
03:02PM 48.8500 -116.9667 201° Southwest 470 541 38,000  Level Edmonton Center
03:03PM 48.7333 -117.0667 209° Southwest 470 541 38,000  Level Edmonton Center
03:04PM 48.6000 -117.1333 198° South 470 541 38,000  Level Edmonton Center
03:05PM 48.5000 -117.2333 214° Southwest 480 552 38,000  Level Edmonton Center
03:06PM 48.3833 -117.3000 201° Southwest 470 541 38,000  Level Edmonton Center
03:07PM 48.2631 -117.3756 203° Southwest 475 547 38,000  Level Seattle Center
03:08PM 48.1436 -117.4600 205° Southwest 479 551 38,000 -60 Level Seattle Center
03:09PM 48.0222 -117.5436 205° Southwest 482 555 37,900  Descending Seattle Center
03:10PM 47.9019 -117.6264 205° Southwest 482 555 38,000  Climbing Seattle Center
03:11PM 47.7814 -117.7086 205° Southwest 481 554 38,000  Level Seattle Center
03:12PM 47.6375 -117.8069 205° Southwest 480 552 38,000  Level Seattle Center
03:14PM 47.5178 -117.8875 204° Southwest 478 550 38,000  Level Seattle Center
03:15PM 47.3975 -117.9689 205° Southwest 478 550 38,000  Level Seattle Center
03:16PM 47.2767 -118.0503 205° Southwest 480 552 38,000  Level Seattle Center
03:17PM 47.1572 -118.1314 205° Southwest 477 549 38,000  Level Seattle Center
03:18PM 47.0364 -118.2106 204° Southwest 478 550 38,000  Level Seattle Center
03:19PM 46.9150 -118.2897 204° Southwest 479 551 38,000  Level Seattle Center
03:20PM 46.7953 -118.3692 204° Southwest 476 548 38,000  Level Seattle Center
03:21PM 46.6733 -118.4475 204° Southwest 479 551 38,000  Level Seattle Center
03:22PM 46.5278 -118.5433 204° Southwest 480 552 38,000  Level Seattle Center
03:23PM 46.4064 -118.6197 203° Southwest 477 549 38,000  Level Seattle Center
03:24PM 46.2844 -118.6992 204° Southwest 480 552 38,000  Level Seattle Center
03:25PM 46.1747 -118.7683 204° Southwest 481 554 38,000  Level Seattle Center
03:31PM 45.3908 -119.2596 204° Southwest 486 559 38,000  Level FlightAware ADS-B (KSLE)
03:32PM 45.2875 -119.3247 204° Southwest 488 562 38,000 120 Level Seattle Center
03:33PM 45.1628 -119.4014 203° Southwest 488 562 38,300 480 Climbing Seattle Center
03:34PM 45.0361 -119.4792 203° Southwest 491 565 39,000 300 Climbing Seattle Center
03:35PM 44.9064 -119.5578 203° Southwest 499 574 39,000  Level Seattle Center
03:36PM 44.7778 -119.6353 203° Southwest 498 573 39,000  Level Seattle Center
03:37PM 44.6494 -119.7133 203° Southwest 496 571 39,000  Level Seattle Center
03:38PM 44.5203 -119.7900 203° Southwest 500 575 39,000  Level Seattle Center
03:39PM 44.3925 -119.8661 203° Southwest 498 573 39,000  Level Seattle Center
03:45PM 43.5499 -120.3210 200° South 498 573 39,000  Level FlightAware ADS-B (KSLE)
03:46PM 43.4794 -120.3575 200° South 498 573 39,000  Level FlightAware ADS-B (KSLE)
03:49PM 43.0872 -120.5557 200° South 502 578 39,000  Level FlightAware ADS-B (KSLE)
03:50PM 42.9767 -120.6139 200° South 500 575 39,000  Level Oakland Center
03:51PM 42.8447 -120.6778 200° South 502 578 39,000  Level Oakland Center
03:52PM 42.7144 -120.7411 200° South 500 575 39,000  Level Oakland Center
03:53PM 42.5819 -120.8056 200° South 502 578 39,000  Level Oakland Center
03:54PM 42.4514 -120.8692 200° South 500 575 39,000  Level Oakland Center
03:55PM 42.3214 -120.9331 200° South 497 572 39,000  Level Oakland Center
03:56PM 42.1892 -120.9958 199° South 499 574 39,000  Level Oakland Center
03:57PM 42.0594 -121.0586 200° South 496 571 39,000  Level Oakland Center
03:58PM 41.9028 -121.1350 200° South 495 570 39,000  Level Oakland Center
03:59PM 41.7742 -121.1956 199° South 490 564 39,000  Level Oakland Center
04:05PM 41.0229 -121.5538 200° South 485 558 39,000  Level FlightAware ADS-B (KAHC)
04:05PM 40.9590 -121.5834 199° South 484 557 39,000  Level FlightAware ADS-B (KAHC)
04:06PM 40.8622 -121.6285 199° South 482 555 39,000  Level FlightAware ADS-B (KAHC)
04:07PM 40.7994 -121.6578 199° South 480 552 39,000  Level FlightAware ADS-B (KAHC)
04:07PM 40.7104 -121.6985 199° South 478 550 39,000  Level FlightAware ADS-B (KAHC)
04:08PM 40.6278 -121.7370 199° South 477 549 39,000  Level FlightAware ADS-B (KAHC)
04:09PM 40.5534 -121.7715 199° South 476 548 39,000  Level FlightAware ADS-B (KAHC)
04:09PM 40.4902 -121.8002 199° South 474 545 39,000  Level FlightAware ADS-B (KAHC)
04:10PM 40.4140 -121.8353 199° South 473 544 39,000  Level FlightAware ADS-B (KAHC)
04:10PM 40.3400 -121.8692 199° South 472 543 39,000  Level FlightAware ADS-B
04:11PM 40.2013 -121.9323 199° South 472 543 39,000  Level FlightAware ADS-B (KAHC)
04:12PM 40.1215 -121.9688 199° South 473 544 39,000  Level FlightAware ADS-B (KAHC)
04:13PM 40.0322 -122.0092 199° South 474 545 39,000  Level FlightAware ADS-B (KAHC)
04:13PM 39.9631 -122.0404 199° South 475 547 39,000  Level FlightAware ADS-B
04:14PM 39.8822 -122.0770 199° South 477 549 39,000  Level FlightAware ADS-B
04:15PM 39.7771 -122.1089 190° South 488 562 39,000  Level FlightAware ADS-B (KAHC)
04:16PM 39.6724 -122.1328 190° South 488 562 39,000  Level FlightAware ADS-B
04:16PM 39.5806 -122.1537 190° South 489 563 39,000  Level FlightAware ADS-B
04:17PM 39.4886 -122.1748 190° South 490 564 39,000  Level FlightAware ADS-B
04:18PM 39.4035 -122.1945 189° South 492 566 39,000 -1,380 Level FlightAware ADS-B
04:19PM 39.2669 -122.2366 197° South 501 577 36,800 -1,980 Descending FlightAware ADS-B
04:19PM 39.1803 -122.2799 203° Southwest 484 557 35,700 -1,980 Descending FlightAware ADS-B
04:20PM 39.0984 -122.3264 203° Southwest 473 544 34,200 -2,340 Descending FlightAware ADS-B
04:21PM 39.0154 -122.3719 203° Southwest 466 536 32,600 -2,340 Descending FlightAware ADS-B
04:21PM 38.9402 -122.4128 202° Southwest 459 528 31,100 -2,340 Descending FlightAware ADS-B
04:22PM 38.8216 -122.4764 202° Southwest 452 520 28,700 -2,340 Descending FlightAware ADS-B
04:23PM 38.7428 -122.5176 202° Southwest 440 506 27,200 -2,220 Descending FlightAware ADS-B
04:24PM 38.6319 -122.5766 202° Southwest 426 490 25,000 -2,400 Descending FlightAware ADS-B
04:25PM 38.5209 -122.6357 202° Southwest 424 488 22,500 -2,280 Descending FlightAware ADS-B
04:26PM 38.4536 -122.6714 202° Southwest 413 475 21,300 -2,040 Descending FlightAware ADS-B
04:26PM 38.3800 -122.7104 202° Southwest 406 467 19,800 -1,980 Descending FlightAware ADS-B
04:28PM 38.2472 -122.7796 202° Southwest 383 441 17,400 -1,980 Descending FlightAware ADS-B
04:29PM 38.1475 -122.8199 181° South 375 432 15,300 -2,220 Descending FlightAware ADS-B
04:30PM 38.0722 -122.7891 151° Southeast 378 435 13,000 -1,320 Descending FlightAware ADS-B
04:32PM 37.8761 -122.6473 139° Southeast 305 351 11,000 -840 Descending FlightAware ADS-B
04:32PM 37.8254 -122.5930 140° Southeast 305 351 10,800 -180 Descending FlightAware ADS-B
04:33PM 37.7650 -122.5290 140° Southeast 304 350 10,800  Level FlightAware ADS-B
04:34PM 37.7207 -122.4820 140° Southeast 281 323 10,800  Level FlightAware ADS-B
04:35PM 37.6684 -122.4260 140° Southeast 265 305 10,800  Level FlightAware ADS-B
04:35PM 37.6404 -122.3960 140° Southeast 263 303 10,800 -120 Level FlightAware ADS-B
04:36PM 37.6137 -122.3700 149° Southeast 260 299 10,700 -900 Descending FlightAware ADS-B
04:36PM 37.5843 -122.3520 156° South 255 293 10,000 -1,620 Descending FlightAware ADS-B
04:37PM 37.5680 -122.3430 156° South 254 292 9,600 -1,680 Descending FlightAware ADS-B
04:37PM 37.5534 -122.3350 156° South 253 291 9,200 -1,740 Descending FlightAware ADS-B
04:37PM 37.5384 -122.3260 156° South 251 289 8,800 -1,440 Descending FlightAware ADS-B
04:37PM 37.5220 -122.3180 156° South 245 282 8,500 -1,380 Descending FlightAware ADS-B
04:38PM 37.5026 -122.3070 156° South 244 281 8,000 -1,560 Descending FlightAware ADS-B
04:38PM 37.4858 -122.2980 156° South 240 276 7,600 -1,560 Descending FlightAware ADS-B
04:38PM 37.4701 -122.2890 157° South 239 275 7,200 -1,740 Descending FlightAware ADS-B
04:38PM 37.4534 -122.2800 156° South 238 274 6,700 -1,740 Descending FlightAware ADS-B
04:39PM 37.4380 -122.2710 156° South 238 274 6,300 -1,680 Descending FlightAware ADS-B
04:39PM 37.4351 -122.2680 146° Southeast 235 270 6,200 -2,580 Descending FlightAware ADS-B
04:39PM 37.4320 -122.2650 139° Southeast 235 270 6,000 -2,280 Descending FlightAware ADS-B
04:39PM 37.4291 -122.2610 131° Southeast 234 269 5,900 -1,500 Descending FlightAware ADS-B
04:39PM 37.4265 -122.2560 125° Southeast 234 269 5,800 -1,800 Descending FlightAware ADS-B
04:39PM 37.4198 -122.2410 117° Southeast 231 266 5,400 -1,620 Descending FlightAware ADS-B
04:39PM 37.4113 -122.2210 118° Southeast 229 264 5,000 -1,440 Descending FlightAware ADS-B
04:40PM 37.4072 -122.2120 118° Southeast 229 264 4,800 -1,320 Descending FlightAware ADS-B
04:40PM 37.4047 -122.2040 113° Southeast 228 262 4,700 -1,500 Descending FlightAware ADS-B
04:40PM 37.4037 -122.2010 108° East 227 261 4,600 -1,740 Descending FlightAware ADS-B
04:40PM 37.4030 -122.1950 99° East 227 261 4,500 -900 Descending FlightAware ADS-B
04:40PM 37.4028 -122.1920 91° East 226 260 4,500 -900 Level FlightAware ADS-B
04:40PM 37.4031 -122.1860 84° East 224 258 4,400 -1,380 Descending FlightAware ADS-B
04:40PM 37.4045 -122.1800 71° East 219 252 4,300 -1,200 Descending FlightAware ADS-B
04:40PM 37.4064 -122.1750 62° Northeast 216 249 4,200 -1,500 Descending FlightAware ADS-B
04:40PM 37.4084 -122.1710 55° Northeast 213 245 4,100 -1,020 Descending FlightAware ADS-B
04:40PM 37.4104 -122.1690 45° Northeast 209 241 4,100 -600 Level FlightAware ADS-B
04:40PM 37.4157 -122.1640 28° Northeast 202 232 4,000 -960 Descending FlightAware ADS-B
04:40PM 37.4210 -122.1610 16° North 198 228 3,900 -600 Descending FlightAware ADS-B
04:41PM 37.4352 -122.1630 346° North 190 219 3,800 -300 Descending FlightAware ADS-B
04:41PM 37.4387 -122.1640 343° North 184 212 3,800  Level FlightAware ADS-B
04:41PM 37.4508 -122.1690 342° North 174 200 3,800  Level FlightAware ADS-B
04:41PM 37.4622 -122.1740 342° North 173 199 3,800  Level FlightAware ADS-B
04:41PM 37.4677 -122.1760 341° North 170 196 3,800  Level FlightAware ADS-B
04:41PM 37.4716 -122.1770 345° North 170 196 3,800  Level FlightAware ADS-B
04:42PM 37.4748 -122.1780 348° North 172 198 3,800 -540 Level FlightAware ADS-B
04:42PM 37.4815 -122.1800 352° North 172 198 3,700 -720 Descending FlightAware ADS-B
04:42PM 37.4887 -122.1810 353° North 171 197 3,600 -1,020 Descending FlightAware ADS-B
04:42PM 37.5007 -122.1830 353° North 172 198 3,300 -1,200 Descending FlightAware ADS-B
04:42PM 37.5130 -122.1850 353° North 173 199 3,000 -1,200 Descending FlightAware ADS-B
04:42PM 37.5169 -122.1860 349° North 174 200 2,900 -720 Descending FlightAware ADS-B
04:42PM 37.5201 -122.1870 345° North 175 201 2,900 -600 Level FlightAware ADS-B
04:43PM 37.5254 -122.1890 341° North 175 201 2,800 -840 Descending FlightAware ADS-B
04:43PM 37.5370 -122.1940 339° North 173 199 2,600 -1,020 Descending FlightAware ADS-B
04:43PM 37.5396 -122.1960 335° Northwest 173 199 2,500 -900 Descending FlightAware ADS-B
04:43PM 37.5418 -122.1970 326° Northwest 174 200 2,500  Level FlightAware ADS-B
04:43PM 37.5437 -122.1990 318° Northwest 177 204 2,500  Level FlightAware ADS-B
04:43PM 37.5461 -122.2030 308° West 177 204 2,500 -900 Level FlightAware ADS-B
04:43PM 37.5476 -122.2050 304° West 178 205 2,400 -900 Descending FlightAware ADS-B
04:43PM 37.5493 -122.2090 300° West 177 204 2,400 -780 Level FlightAware ADS-B
04:43PM 37.5509 -122.2130 298° West 176 203 2,300 -840 Descending FlightAware ADS-B
04:43PM 37.5549 -122.2230 296° West 175 201 2,200 -840 Descending FlightAware ADS-B
04:44PM 37.5586 -122.2320 298° West 172 198 2,000 -960 Descending FlightAware ADS-B
04:44PM 37.5643 -122.2450 298° West 164 189 1,800 -960 Descending FlightAware ADS-B
04:44PM 37.5704 -122.2600 298° West 163 188 1,500 -900 Descending FlightAware ADS-B
04:44PM 37.5738 -122.2680 298° West 163 188 1,400 -840 Descending FlightAware ADS-B
04:45PM 37.5780 -122.2780 298° West 153 176 1,200 -960 Descending FlightAware ADS-B
04:45PM 37.5824 -122.2880 298° West 149 171 1,000 -660 Descending FlightAware ADS-B
04:45PM 37.5872 -122.3000 298° West 145 167 900 -600 Descending FlightAware ADS-B
04:45PM 37.5926 -122.3130 298° West 140 161 700 -780 Descending FlightAware ADS-B
04:46PM 37.5973 -122.3230 298° West 140 161 500 -780 Descending FlightAware ADS-B
04:46PM 37.5998 -122.3300 298° West 140 161 400 -780 Descending FlightAware ADS-B
04:46PM 37.6022 -122.3350 298° West 138 159 300 -840 Descending FlightAware ADS-B
04:46PM 37.6068 -122.3460 298° West 137 158 100 -840 Descending FlightAware ADS-B
04:46PM 37.6139 -122.3630 298° West 133 153 -300 Descending FlightAware ADS-B